createdAt,value
2023-05-25T00:01:30.581Z,13.75
2023-05-25T00:04:00.709Z,13.71
2023-05-25T00:06:29.966Z,13.70
2023-05-25T00:08:58.153Z,13.69
2023-05-25T00:11:26.683Z,13.74
2023-05-25T00:13:55.026Z,13.70
2023-05-25T00:16:22.935Z,13.68
2023-05-25T00:18:51.030Z,13.63
2023-05-25T00:21:20.474Z,13.63
2023-05-25T00:23:48.346Z,13.63
2023-05-25T00:26:16.162Z,13.63
2023-05-25T00:28:44.351Z,13.64
2023-05-25T00:31:12.370Z,13.45
2023-05-25T00:33:40.385Z,13.60
2023-05-25T00:36:09.344Z,13.40
2023-05-25T00:38:39.525Z,13.50
2023-05-25T00:41:07.536Z,13.50
2023-05-25T00:43:35.650Z,13.49
2023-05-25T00:46:04.276Z,13.45
2023-05-25T00:48:32.956Z,13.47
2023-05-25T00:51:01.547Z,13.36
2023-05-25T00:53:29.802Z,13.46
2023-05-25T00:56:06.194Z,13.49
2023-05-25T00:58:35.392Z,13.46
2023-05-25T01:01:06.466Z,13.35
2023-05-25T01:03:38.719Z,13.40
2023-05-25T01:06:10.878Z,13.29
2023-05-25T01:08:41.380Z,13.36
2023-05-25T01:11:13.154Z,13.33
2023-05-25T01:13:42.703Z,13.32
2023-05-25T01:16:11.061Z,13.31
2023-05-25T01:18:41.896Z,13.28
2023-05-25T01:21:17.998Z,13.27
2023-05-25T01:23:52.516Z,13.22
2023-05-25T01:26:24.691Z,13.18
2023-05-25T01:28:54.138Z,13.17
2023-05-25T01:31:23.621Z,13.20
2023-05-25T01:33:52.850Z,13.04
2023-05-25T01:36:22.104Z,13.09
2023-05-25T01:38:50.448Z,13.04
2023-05-25T01:41:18.228Z,13.06
2023-05-25T01:43:46.903Z,13.08
2023-05-25T01:46:20.955Z,13.04
2023-05-25T01:48:55.637Z,13.03
2023-05-25T01:51:33.605Z,12.98
2023-05-25T01:54:07.401Z,12.97
2023-05-25T01:56:37.269Z,13.00
2023-05-25T01:59:07.653Z,13.01
2023-05-25T02:01:37.524Z,12.93
2023-05-25T02:04:06.982Z,13.01
2023-05-25T02:06:36.901Z,13.02
2023-05-25T02:09:07.391Z,13.01
2023-05-25T02:11:35.352Z,13.04
2023-05-25T02:14:03.246Z,13.04
2023-05-25T02:16:31.182Z,13.04
2023-05-25T02:19:01.027Z,12.98
2023-05-25T02:21:28.881Z,13.01
2023-05-25T02:23:58.483Z,12.97
2023-05-25T02:26:26.331Z,12.93
2023-05-25T02:28:54.398Z,12.94
2023-05-25T02:31:22.389Z,12.91
2023-05-25T02:33:50.249Z,12.93
2023-05-25T02:36:20.170Z,12.89
2023-05-25T02:38:50.029Z,12.87
2023-05-25T02:41:21.254Z,12.85
2023-05-25T02:43:49.310Z,12.84
2023-05-25T02:46:17.251Z,12.84
2023-05-25T02:48:45.140Z,12.75
2023-05-25T02:51:13.185Z,12.75
2023-05-25T02:53:41.185Z,12.79
2023-05-25T02:56:10.444Z,12.75
2023-05-25T02:58:39.862Z,12.69
2023-05-25T03:01:18.783Z,12.75
2023-05-25T03:03:53.175Z,12.77
2023-05-25T03:06:26.386Z,12.76
2023-05-25T03:09:07.262Z,12.71
2023-05-25T03:11:35.273Z,12.71
2023-05-25T03:14:06.354Z,12.69
2023-05-25T03:16:36.724Z,12.58
2023-05-25T03:19:05.749Z,12.61
2023-05-25T03:21:36.531Z,12.61
2023-05-25T03:24:04.698Z,12.59
2023-05-25T03:26:33.871Z,12.61
2023-05-25T03:29:03.394Z,12.54
2023-05-25T03:31:32.589Z,12.57
2023-05-25T03:34:00.471Z,12.56
2023-05-25T03:36:30.819Z,12.55
2023-05-25T03:38:58.855Z,12.59
2023-05-25T03:41:27.062Z,12.56
2023-05-25T03:43:55.034Z,12.51
2023-05-25T03:46:23.151Z,12.53
2023-05-25T03:48:52.447Z,12.54
2023-05-25T03:51:20.532Z,12.55
2023-05-25T03:53:48.338Z,12.56
2023-05-25T03:56:16.151Z,12.60
2023-05-25T03:58:43.960Z,12.48
2023-05-25T04:01:13.250Z,12.55
2023-05-25T04:03:41.356Z,12.58
2023-05-25T04:06:11.550Z,12.59
2023-05-25T04:08:41.030Z,12.62
2023-05-25T04:11:08.950Z,12.66
2023-05-25T04:13:40.162Z,12.69
2023-05-25T04:16:10.284Z,12.66
2023-05-25T04:18:38.236Z,12.56
2023-05-25T04:21:06.301Z,12.55
2023-05-25T04:23:35.575Z,12.61
2023-05-25T04:26:06.074Z,12.56
2023-05-25T04:28:33.984Z,12.65
2023-05-25T04:31:25.005Z,12.73
2023-05-25T04:34:15.961Z,12.62
2023-05-25T04:36:51.678Z,12.71
2023-05-25T04:39:22.339Z,12.77
2023-05-25T04:41:54.255Z,12.69
2023-05-25T04:44:22.226Z,12.74
2023-05-25T04:46:53.682Z,12.77
2023-05-25T04:49:28.090Z,12.84
2023-05-25T04:51:56.105Z,12.83
2023-05-25T04:54:26.460Z,12.88
2023-05-25T04:56:54.602Z,12.87
2023-05-25T04:59:22.403Z,12.83
2023-05-25T05:01:50.350Z,12.67
2023-05-25T05:04:18.816Z,12.90
2023-05-25T05:06:48.596Z,12.87
2023-05-25T05:09:20.524Z,12.95
2023-05-25T05:11:50.805Z,13.03
2023-05-25T05:14:19.879Z,13.03
2023-05-25T05:16:48.599Z,13.00
2023-05-25T05:19:16.859Z,13.04
2023-05-25T05:21:45.148Z,13.09
2023-05-25T05:24:13.449Z,13.11
2023-05-25T05:26:56.402Z,13.13
2023-05-25T05:29:30.239Z,13.16
2023-05-25T05:31:58.885Z,13.15
2023-05-25T05:34:27.373Z,13.23
2023-05-25T05:36:58.441Z,13.23
2023-05-25T05:39:28.832Z,13.28
2023-05-25T05:41:56.884Z,13.27
2023-05-25T05:44:27.725Z,13.35
2023-05-25T05:47:00.774Z,13.34
2023-05-25T05:49:29.768Z,13.33
2023-05-25T05:51:59.311Z,13.31
2023-05-25T05:54:28.562Z,13.46
2023-05-25T05:57:00.006Z,13.45
2023-05-25T05:59:28.116Z,13.48
2023-05-25T06:01:58.400Z,13.49
2023-05-25T06:04:28.691Z,13.46
2023-05-25T06:06:57.463Z,13.48
2023-05-25T06:09:26.415Z,13.54
2023-05-25T06:11:54.955Z,13.56
2023-05-25T06:14:22.894Z,13.61
2023-05-25T06:16:51.176Z,13.64
2023-05-25T06:19:20.430Z,13.66
2023-05-25T06:21:49.034Z,13.69
2023-05-25T06:24:17.025Z,13.70
2023-05-25T06:26:45.503Z,13.70
2023-05-25T06:29:17.232Z,13.74
2023-05-25T06:31:45.943Z,13.74
2023-05-25T06:34:13.834Z,13.77
2023-05-25T06:36:42.969Z,13.82
2023-05-25T06:39:11.226Z,13.87
2023-05-25T06:41:40.493Z,13.91
2023-05-25T06:44:08.411Z,13.90
2023-05-25T06:46:42.518Z,14.03
2023-05-25T06:49:10.897Z,14.02
2023-05-25T06:51:38.748Z,14.07
2023-05-25T06:54:08.667Z,14.09
2023-05-25T06:56:36.457Z,14.15
2023-05-25T06:59:04.301Z,14.21
2023-05-25T07:01:32.103Z,14.20
2023-05-25T07:03:59.939Z,14.25
2023-05-25T07:06:27.768Z,14.28
2023-05-25T07:08:56.192Z,14.32
2023-05-25T07:11:25.963Z,14.38
2023-05-25T07:13:53.778Z,14.40
2023-05-25T07:16:21.630Z,14.44
2023-05-25T07:18:49.512Z,14.48
2023-05-25T07:21:17.390Z,14.50
2023-05-25T07:23:45.186Z,14.51
2023-05-25T07:26:14.454Z,14.54
2023-05-25T07:28:43.682Z,14.60
2023-05-25T07:31:12.112Z,14.72
2023-05-25T07:33:39.881Z,14.74
2023-05-25T07:36:08.354Z,14.75
2023-05-25T07:38:36.173Z,14.78
2023-05-25T07:41:03.940Z,14.87
2023-05-25T07:43:32.604Z,14.87
2023-05-25T07:46:02.404Z,14.93
2023-05-25T07:48:30.197Z,14.98
2023-05-25T07:50:58.084Z,14.96
2023-05-25T07:53:26.101Z,14.97
2023-05-25T07:55:53.924Z,14.92
2023-05-25T07:58:21.710Z,15.00
2023-05-25T08:00:50.386Z,15.09
2023-05-25T08:03:26.190Z,15.16
2023-05-25T08:05:59.986Z,15.27
2023-05-25T08:08:27.772Z,15.34
2023-05-25T08:10:55.611Z,15.40
2023-05-25T08:13:23.586Z,15.55
2023-05-25T08:15:51.389Z,15.57
2023-05-25T08:18:20.488Z,15.64
2023-05-25T08:20:48.274Z,15.67
2023-05-25T08:23:16.370Z,15.68
2023-05-25T08:25:44.395Z,15.78
2023-05-25T08:28:12.303Z,15.84
2023-05-25T08:30:40.156Z,15.91
2023-05-25T08:33:08.392Z,15.98
2023-05-25T08:35:39.418Z,15.99
2023-05-25T08:38:07.370Z,16.00
2023-05-25T08:40:35.204Z,16.04
2023-05-25T08:43:03.089Z,16.11
2023-05-25T08:45:34.967Z,16.10
2023-05-25T08:48:09.264Z,16.11
2023-05-25T08:50:41.278Z,16.09
2023-05-25T08:53:11.804Z,16.12
2023-05-25T08:55:43.494Z,16.14
2023-05-25T08:58:16.795Z,16.12
2023-05-25T09:00:52.261Z,16.18
2023-05-25T09:03:21.758Z,16.04
2023-05-25T09:05:51.749Z,16.22
2023-05-25T09:08:21.331Z,16.28
2023-05-25T09:10:49.823Z,16.34
2023-05-25T09:13:21.854Z,16.43
2023-05-25T09:15:52.009Z,16.44
2023-05-25T09:18:19.955Z,16.37
2023-05-25T09:20:48.115Z,16.36
2023-05-25T09:23:18.115Z,16.35
2023-05-25T09:25:47.672Z,16.43
2023-05-25T09:30:46.316Z,16.40
2023-05-25T09:33:17.718Z,16.50
2023-05-25T09:35:46.868Z,16.60
2023-05-25T09:38:16.364Z,16.63
2023-05-25T09:40:46.765Z,16.66
2023-05-25T09:43:25.033Z,16.69
2023-05-25T09:46:00.839Z,16.72
2023-05-25T09:48:29.363Z,16.73
2023-05-25T09:50:57.702Z,16.76
2023-05-25T09:53:25.464Z,16.92
2023-05-25T09:55:55.048Z,16.96
2023-05-25T09:58:24.682Z,17.09
2023-05-25T10:00:55.217Z,17.19
2023-05-25T10:03:23.069Z,17.26
2023-05-25T10:05:51.259Z,17.33
2023-05-25T10:08:21.586Z,17.32
2023-05-25T10:10:50.796Z,17.32
2023-05-25T10:13:22.858Z,17.39
2023-05-25T10:15:54.631Z,17.42
2023-05-25T10:18:27.319Z,17.49
2023-05-25T10:21:02.587Z,17.55
2023-05-25T10:23:37.023Z,17.55
2023-05-25T10:26:08.750Z,17.43
2023-05-25T10:28:40.988Z,17.50
2023-05-25T10:31:10.600Z,17.71
2023-05-25T10:33:38.664Z,17.82
2023-05-25T10:36:11.361Z,17.95
2023-05-25T10:38:41.850Z,18.03
2023-05-25T10:41:11.628Z,18.38
2023-05-25T10:43:41.705Z,18.84
2023-05-25T10:46:09.764Z,19.17
2023-05-25T10:48:38.357Z,19.34
2023-05-25T10:51:08.837Z,19.12
2023-05-25T10:53:37.949Z,19.00
2023-05-25T10:56:07.448Z,19.58
2023-05-25T10:58:35.443Z,19.63
2023-05-25T11:01:08.184Z,19.75
2023-05-25T11:03:56.293Z,20.10
2023-05-25T11:06:44.922Z,20.50
2023-05-25T11:09:27.502Z,20.85
2023-05-25T11:12:06.514Z,21.23
2023-05-25T11:14:37.737Z,21.31
2023-05-25T11:17:07.980Z,21.40
2023-05-25T11:19:49.584Z,21.63
2023-05-25T11:22:20.654Z,21.81
2023-05-25T11:24:50.852Z,22.01
2023-05-25T11:27:24.718Z,22.25
2023-05-25T11:29:53.188Z,22.12
2023-05-25T11:32:22.722Z,22.03
2023-05-25T11:34:53.889Z,22.31
2023-05-25T11:37:24.825Z,21.97
2023-05-25T11:39:54.485Z,21.48
2023-05-25T11:42:24.327Z,21.55
2023-05-25T11:44:52.252Z,21.62
2023-05-25T11:47:25.058Z,21.11
2023-05-25T11:49:53.275Z,21.04
2023-05-25T11:52:22.257Z,20.87
2023-05-25T11:54:50.209Z,21.46
2023-05-25T11:57:22.459Z,21.05
2023-05-25T11:59:51.130Z,21.06
2023-05-25T12:02:19.556Z,21.28
2023-05-25T12:04:58.231Z,21.93
2023-05-25T12:07:27.089Z,22.17
2023-05-25T12:10:06.267Z,22.33
2023-05-25T12:12:42.101Z,22.72
2023-05-25T12:15:11.777Z,23.02
2023-05-25T12:17:42.915Z,23.22
2023-05-25T12:20:12.482Z,23.56
2023-05-25T12:22:41.158Z,23.51
2023-05-25T12:25:10.398Z,23.91
2023-05-25T12:27:38.649Z,24.07
2023-05-25T12:30:09.911Z,24.08
2023-05-25T12:32:54.135Z,24.07
2023-05-25T12:35:22.078Z,24.07
2023-05-25T12:37:49.884Z,24.22
2023-05-25T12:40:20.349Z,24.25
2023-05-25T12:42:56.895Z,24.36
2023-05-25T12:45:26.166Z,24.68
2023-05-25T12:47:54.090Z,24.77
2023-05-25T12:50:21.940Z,24.69
2023-05-25T12:52:50.215Z,24.70
2023-05-25T12:55:22.948Z,24.80
2023-05-25T12:57:52.669Z,25.02
2023-05-25T13:00:22.066Z,25.16
2023-05-25T13:02:51.619Z,25.21
2023-05-25T13:05:20.965Z,25.33
2023-05-25T13:07:49.056Z,25.48
2023-05-25T13:10:18.389Z,25.70
2023-05-25T13:12:47.414Z,25.59
2023-05-25T13:15:20.956Z,25.63
2023-05-25T13:17:50.394Z,25.79
2023-05-25T13:20:20.889Z,25.79
2023-05-25T13:22:50.278Z,25.96
2023-05-25T13:25:18.385Z,26.03
2023-05-25T13:27:48.775Z,26.19
2023-05-25T13:30:17.107Z,25.98
2023-05-25T13:32:45.476Z,26.04
2023-05-25T13:35:19.128Z,26.16
2023-05-25T13:37:48.598Z,26.26
2023-05-25T13:40:16.450Z,25.97
2023-05-25T13:42:44.359Z,26.07
2023-05-25T13:45:12.286Z,26.00
2023-05-25T13:47:41.323Z,26.20
2023-05-25T13:50:09.681Z,26.41
2023-05-25T13:52:37.672Z,26.37
2023-05-25T13:55:07.870Z,26.37
2023-05-25T13:57:35.663Z,26.24
2023-05-25T14:00:03.648Z,25.88
2023-05-25T14:02:35.183Z,25.98
2023-05-25T14:05:03.096Z,25.62
2023-05-25T14:07:31.254Z,25.55
2023-05-25T14:10:00.275Z,25.61
2023-05-25T14:12:29.780Z,25.35
2023-05-25T14:14:57.567Z,25.18
2023-05-25T14:17:25.667Z,24.85
2023-05-25T14:19:53.451Z,24.72
2023-05-25T14:22:23.454Z,24.44
2023-05-25T14:24:51.246Z,23.96
2023-05-25T14:27:21.224Z,23.96
2023-05-25T14:29:51.281Z,23.90
2023-05-25T14:32:19.890Z,23.87
2023-05-25T14:34:47.696Z,23.80
2023-05-25T14:37:15.582Z,23.79
2023-05-25T14:39:43.331Z,23.77
2023-05-25T14:42:11.107Z,23.66
2023-05-25T14:44:41.479Z,23.64
2023-05-25T14:47:10.759Z,23.58
2023-05-25T14:49:38.607Z,23.43
2023-05-25T14:52:06.294Z,23.30
2023-05-25T14:54:34.049Z,23.29
2023-05-25T14:57:01.853Z,23.26
2023-05-25T14:59:29.767Z,23.18
2023-05-25T15:01:57.593Z,23.12
2023-05-25T15:04:27.062Z,23.07
2023-05-25T15:06:55.071Z,23.09
2023-05-25T15:09:22.895Z,22.85
2023-05-25T15:11:50.607Z,22.80
2023-05-25T15:14:18.543Z,22.76
2023-05-25T15:16:46.493Z,22.76
2023-05-25T15:19:16.770Z,22.78
2023-05-25T15:21:46.786Z,22.69
2023-05-25T15:24:16.636Z,22.62
2023-05-25T15:26:44.591Z,22.65
2023-05-25T15:29:12.320Z,22.65
2023-05-25T15:31:40.177Z,22.67
2023-05-25T15:34:09.068Z,22.55
2023-05-25T15:36:36.781Z,22.58
2023-05-25T15:39:08.788Z,22.53
2023-05-25T15:41:36.520Z,22.32
2023-05-25T15:44:08.079Z,22.41
2023-05-25T15:46:36.200Z,22.48
2023-05-25T15:49:10.665Z,22.39
2023-05-25T15:51:43.674Z,22.34
2023-05-25T15:54:14.865Z,22.34
2023-05-25T15:56:42.876Z,22.43
2023-05-25T15:59:12.097Z,22.33
2023-05-25T16:01:39.975Z,22.22
2023-05-25T16:04:08.058Z,22.22
2023-05-25T16:06:36.249Z,22.16
2023-05-25T16:09:04.434Z,22.16
2023-05-25T16:11:34.113Z,22.22
2023-05-25T16:14:01.947Z,22.25
2023-05-25T16:16:29.740Z,22.24
2023-05-25T16:18:57.755Z,22.21
2023-05-25T16:21:25.702Z,22.20
2023-05-25T16:23:53.452Z,22.12
2023-05-25T16:26:22.393Z,22.03
2023-05-25T16:28:51.512Z,22.01
2023-05-25T16:31:19.335Z,21.97
2023-05-25T16:33:47.888Z,21.95
2023-05-25T16:36:16.625Z,21.95
2023-05-25T16:38:44.807Z,22.07
2023-05-25T16:41:12.822Z,22.18
2023-05-25T16:43:40.682Z,22.26
2023-05-25T16:46:09.892Z,22.25
2023-05-25T16:48:37.821Z,22.29
2023-05-25T16:51:06.237Z,22.34
2023-05-25T16:53:34.035Z,22.40
2023-05-25T16:56:04.356Z,22.41
2023-05-25T16:58:32.062Z,22.36
2023-05-25T17:00:59.997Z,22.40
2023-05-25T17:03:29.300Z,22.48
2023-05-25T17:05:57.066Z,22.42
2023-05-25T17:08:24.811Z,22.38
2023-05-25T17:10:52.752Z,22.34
2023-05-25T17:13:20.930Z,22.36
2023-05-25T17:15:48.991Z,22.21
2023-05-25T17:18:16.788Z,22.02
2023-05-25T17:20:46.155Z,21.88
2023-05-25T17:23:16.675Z,21.81
2023-05-25T17:25:44.805Z,21.56
2023-05-25T17:28:12.765Z,21.69
2023-05-25T17:30:40.504Z,21.68
2023-05-25T17:33:08.279Z,21.63
2023-05-25T17:35:36.046Z,21.55
2023-05-25T17:38:05.193Z,21.46
2023-05-25T17:40:32.950Z,21.25
2023-05-25T17:43:00.798Z,21.06
2023-05-25T17:45:28.543Z,20.90
2023-05-25T17:47:56.358Z,20.77
2023-05-25T17:50:24.096Z,20.67
2023-05-25T17:52:51.937Z,20.54
2023-05-25T17:55:21.450Z,20.45
2023-05-25T17:57:49.310Z,20.41
2023-05-25T18:00:22.760Z,20.38
2023-05-25T18:02:51.936Z,20.30
2023-05-25T18:05:19.875Z,20.22
2023-05-25T18:07:47.612Z,20.16
2023-05-25T18:10:15.673Z,19.97
2023-05-25T18:12:46.199Z,19.94
2023-05-25T18:15:13.896Z,19.90
2023-05-25T18:17:41.814Z,19.76
2023-05-25T18:20:10.976Z,19.84
2023-05-25T18:22:38.821Z,19.81
2023-05-25T18:25:07.395Z,19.78
2023-05-25T18:27:35.080Z,19.74
2023-05-25T18:30:04.776Z,19.71
2023-05-25T18:32:32.654Z,19.63
2023-05-25T18:35:00.398Z,19.59
2023-05-25T18:37:29.377Z,19.55
2023-05-25T18:39:57.116Z,19.48
2023-05-25T18:42:24.887Z,19.37
2023-05-25T18:44:52.634Z,19.22
2023-05-25T18:47:21.813Z,19.34
2023-05-25T18:49:49.572Z,19.15
2023-05-25T18:52:17.354Z,19.22
2023-05-25T18:54:45.194Z,19.18
2023-05-25T18:57:13.036Z,19.11
2023-05-25T18:59:41.465Z,19.10
2023-05-25T19:02:09.294Z,19.04
2023-05-25T19:04:38.465Z,19.00
2023-05-25T19:07:06.445Z,18.97
2023-05-25T19:09:34.338Z,18.93
2023-05-25T19:12:03.748Z,18.87
2023-05-25T19:14:31.837Z,18.82
2023-05-25T19:16:59.714Z,18.77
2023-05-25T19:19:27.502Z,18.73
2023-05-25T19:21:56.604Z,18.72
2023-05-25T19:24:24.301Z,18.65
2023-05-25T19:26:52.031Z,18.61
2023-05-25T19:29:19.800Z,18.41
2023-05-25T19:31:47.676Z,18.50
2023-05-25T19:34:15.565Z,18.45
2023-05-25T19:36:43.305Z,18.38
2023-05-25T19:39:12.394Z,18.36
2023-05-25T19:41:41.553Z,18.32
2023-05-25T19:44:10.037Z,18.26
2023-05-25T19:46:39.114Z,18.23
2023-05-25T19:49:08.203Z,18.17
2023-05-25T19:51:36.694Z,18.01
2023-05-25T19:54:04.759Z,18.02
2023-05-25T19:56:34.829Z,18.00
2023-05-25T19:59:02.640Z,18.00
2023-05-25T20:01:31.327Z,17.92
2023-05-25T20:03:59.149Z,17.90
2023-05-25T20:06:26.876Z,17.86
2023-05-25T20:08:54.677Z,17.81
2023-05-25T20:11:22.436Z,17.72
2023-05-25T20:13:51.540Z,17.72
2023-05-25T20:16:19.326Z,17.66
2023-05-25T20:18:47.193Z,17.63
2023-05-25T20:21:14.948Z,17.60
2023-05-25T20:23:42.706Z,17.54
2023-05-25T20:26:10.436Z,17.51
2023-05-25T20:28:38.176Z,17.42
2023-05-25T20:31:07.388Z,17.45
2023-05-25T20:33:35.126Z,17.32
2023-05-25T20:36:02.915Z,17.39
2023-05-25T20:38:30.655Z,17.34
2023-05-25T20:40:58.413Z,17.31
2023-05-25T20:43:26.127Z,17.26
2023-05-25T20:45:53.904Z,17.24
2023-05-25T20:48:23.004Z,17.16
2023-05-25T20:50:50.835Z,17.13
2023-05-25T20:53:19.527Z,17.08
2023-05-25T20:55:47.960Z,17.03
2023-05-25T20:58:16.022Z,17.05
2023-05-25T21:00:43.805Z,17.00
2023-05-25T21:03:11.610Z,16.96
2023-05-25T21:05:40.867Z,16.91
2023-05-25T21:08:08.670Z,16.92
2023-05-25T21:10:36.468Z,16.84
2023-05-25T21:13:04.412Z,16.83
2023-05-25T21:15:32.287Z,16.78
2023-05-25T21:18:00.075Z,16.74
2023-05-25T21:20:27.950Z,16.72
2023-05-25T21:22:57.089Z,16.71
2023-05-25T21:25:25.092Z,16.68
2023-05-25T21:27:54.203Z,16.65
2023-05-25T21:30:24.621Z,16.61
2023-05-25T21:32:52.644Z,16.56
2023-05-25T21:35:20.842Z,16.52
2023-05-25T21:37:48.618Z,16.52
2023-05-25T21:40:17.781Z,16.49
2023-05-25T21:42:45.515Z,16.43
2023-05-25T21:45:13.356Z,16.46
2023-05-25T21:47:41.218Z,16.40
2023-05-25T21:50:09.370Z,16.43
2023-05-25T21:52:37.777Z,16.39
2023-05-25T21:55:06.405Z,16.18
2023-05-25T21:57:35.564Z,16.30
2023-05-25T22:00:03.751Z,16.33
2023-05-25T22:02:40.327Z,16.27
2023-05-25T22:05:08.635Z,16.28
2023-05-25T22:07:36.362Z,16.30
2023-05-25T22:10:04.233Z,16.28
2023-05-25T22:12:31.972Z,16.24
2023-05-25T22:15:01.016Z,16.21
2023-05-25T22:17:28.761Z,16.18
2023-05-25T22:20:07.578Z,16.15
2023-05-25T22:22:37.244Z,16.10
2023-05-25T22:25:05.454Z,16.12
2023-05-25T22:27:33.765Z,16.08
2023-05-25T22:30:02.866Z,16.05
2023-05-25T22:32:30.858Z,16.05
2023-05-25T22:34:58.602Z,15.95
2023-05-25T22:37:26.458Z,15.81
2023-05-25T22:39:54.214Z,15.79
2023-05-25T22:42:21.957Z,15.86
2023-05-25T22:44:51.133Z,15.94
2023-05-25T22:47:20.301Z,15.97
2023-05-25T22:49:48.096Z,15.98
2023-05-25T22:52:15.901Z,16.02
2023-05-25T22:54:43.705Z,15.86
2023-05-25T22:57:11.453Z,15.93
2023-05-25T22:59:39.187Z,15.87
2023-05-25T23:02:07.349Z,15.84
2023-05-25T23:04:37.021Z,15.82
2023-05-25T23:07:04.949Z,15.78
2023-05-25T23:09:32.662Z,15.76
2023-05-25T23:12:00.362Z,15.65
2023-05-25T23:14:28.115Z,15.70
2023-05-25T23:16:55.856Z,15.60
2023-05-25T23:19:25.761Z,15.54
2023-05-25T23:21:56.435Z,15.62
2023-05-25T23:24:24.290Z,15.49
2023-05-25T23:26:52.007Z,15.43
2023-05-25T23:29:19.783Z,15.45
2023-05-25T23:31:48.647Z,15.34
2023-05-25T23:34:16.451Z,15.48
2023-05-25T23:36:44.236Z,15.34
2023-05-25T23:39:13.899Z,15.36
2023-05-25T23:41:41.610Z,15.33
2023-05-25T23:44:09.360Z,15.41
2023-05-25T23:46:37.108Z,15.44
2023-05-25T23:49:04.872Z,15.42
2023-05-25T23:51:32.823Z,15.32
2023-05-25T23:54:00.569Z,15.27
2023-05-25T23:56:31.755Z,15.25
2023-05-25T23:58:59.644Z,15.19
